createdAt,value
2022-10-02T00:00:01.439Z,1.40
2022-10-02T00:00:57.322Z,4.10
2022-10-02T00:01:52.500Z,1.60
2022-10-02T00:02:47.929Z,2.70
2022-10-02T00:03:43.569Z,1.40
2022-10-02T00:04:38.963Z,5.70
2022-10-02T00:05:34.535Z,3.90
2022-10-02T00:06:29.702Z,2.40
2022-10-02T00:07:25.528Z,2.00
2022-10-02T00:08:24.068Z,2.10
2022-10-02T00:09:16.015Z,5.80
2022-10-02T00:10:11.203Z,2.30
2022-10-02T00:11:07.861Z,2.70
2022-10-02T00:12:02.971Z,2.50
2022-10-02T00:12:58.788Z,1.10
2022-10-02T00:13:53.875Z,1.90
2022-10-02T00:14:49.072Z,2.60
2022-10-02T00:15:44.795Z,3.00
2022-10-02T00:16:40.413Z,2.30
2022-10-02T00:17:35.745Z,2.60
2022-10-02T00:18:30.901Z,1.60
2022-10-02T00:19:26.240Z,4.30
2022-10-02T00:20:22.084Z,1.90
2022-10-02T00:21:17.276Z,3.90
2022-10-02T00:22:12.555Z,2.20
2022-10-02T00:23:07.723Z,2.80
2022-10-02T00:24:03.613Z,3.40
2022-10-02T00:24:58.647Z,3.50
2022-10-02T00:25:54.074Z,2.30
2022-10-02T00:26:50.006Z,1.70
2022-10-02T00:27:45.208Z,2.80
2022-10-02T00:28:41.074Z,3.40
2022-10-02T00:29:36.235Z,2.60
2022-10-02T00:30:31.556Z,6.30
2022-10-02T00:31:27.289Z,2.40
2022-10-02T00:32:22.580Z,2.10
2022-10-02T00:33:17.619Z,3.10
2022-10-02T00:34:15.366Z,4.50
2022-10-02T00:35:09.461Z,2.10
2022-10-02T00:36:05.219Z,3.00
2022-10-02T00:37:00.393Z,2.40
2022-10-02T00:37:55.614Z,3.80
2022-10-02T00:38:51.330Z,3.10
2022-10-02T00:39:46.502Z,1.80
2022-10-02T00:40:41.661Z,5.20
2022-10-02T00:41:36.779Z,3.10
2022-10-02T00:42:32.106Z,2.00
2022-10-02T00:43:27.279Z,2.30
2022-10-02T00:44:22.565Z,5.80
2022-10-02T00:45:19.067Z,4.80
2022-10-02T00:46:14.117Z,3.10
2022-10-02T00:47:09.406Z,2.90
2022-10-02T00:48:05.027Z,2.50
2022-10-02T00:49:00.181Z,2.50
2022-10-02T00:49:55.395Z,3.30
2022-10-02T00:50:50.570Z,2.90
2022-10-02T00:51:45.952Z,2.90
2022-10-02T00:52:40.991Z,5.00
2022-10-02T00:53:37.534Z,4.10
2022-10-02T00:54:32.727Z,3.40
2022-10-02T00:55:27.954Z,2.50
2022-10-02T00:56:27.158Z,4.50
2022-10-02T00:57:22.258Z,4.30
2022-10-02T00:58:17.709Z,2.20
2022-10-02T00:59:12.753Z,2.40
2022-10-02T01:00:07.802Z,3.20
2022-10-02T01:01:02.925Z,4.70
2022-10-02T01:01:57.999Z,2.90
2022-10-02T01:02:53.007Z,2.80
2022-10-02T01:03:48.104Z,2.90
2022-10-02T01:04:43.243Z,2.80
2022-10-02T01:05:38.521Z,2.50
2022-10-02T01:06:33.824Z,3.50
2022-10-02T01:07:28.789Z,1.00
2022-10-02T01:08:24.000Z,3.60
2022-10-02T01:09:19.150Z,2.50
2022-10-02T01:10:14.195Z,2.50
2022-10-02T01:11:09.263Z,3.30
2022-10-02T01:12:04.305Z,2.30
2022-10-02T01:12:59.323Z,2.20
2022-10-02T01:13:54.442Z,2.80
2022-10-02T01:14:49.464Z,4.50
2022-10-02T01:15:44.560Z,5.60
2022-10-02T01:16:39.866Z,1.10
2022-10-02T01:17:34.566Z,2.30
2022-10-02T01:18:29.637Z,3.80
2022-10-02T01:19:24.671Z,2.80
2022-10-02T01:20:19.982Z,2.40
2022-10-02T01:21:15.014Z,4.00
2022-10-02T01:22:10.167Z,3.90
2022-10-02T01:23:05.357Z,2.60
2022-10-02T01:24:00.700Z,3.40
2022-10-02T01:24:55.946Z,5.30
2022-10-02T01:25:51.095Z,3.60
2022-10-02T01:26:46.147Z,1.80
2022-10-02T01:27:41.354Z,1.90
2022-10-02T01:28:36.432Z,4.00
2022-10-02T01:29:31.494Z,3.30
2022-10-02T01:30:26.555Z,1.60
2022-10-02T01:31:21.597Z,4.90
2022-10-02T01:32:16.800Z,2.60
2022-10-02T01:33:11.970Z,1.60
2022-10-02T01:34:07.041Z,4.40
2022-10-02T01:35:02.117Z,3.80
2022-10-02T01:35:57.134Z,3.60
2022-10-02T01:36:52.243Z,4.30
2022-10-02T01:37:47.280Z,2.30
2022-10-02T01:38:42.306Z,2.30
2022-10-02T01:39:37.320Z,2.90
2022-10-02T01:40:32.448Z,3.60
2022-10-02T01:41:27.449Z,2.70
2022-10-02T01:42:22.532Z,3.70
2022-10-02T01:43:17.575Z,5.50
2022-10-02T01:44:12.626Z,3.10
2022-10-02T01:45:07.635Z,2.90
2022-10-02T01:46:02.772Z,3.30
2022-10-02T01:46:57.683Z,3.30
2022-10-02T01:47:52.845Z,2.60
2022-10-02T01:48:47.994Z,3.30
2022-10-02T01:49:43.731Z,4.20
2022-10-02T01:50:38.989Z,6.60
2022-10-02T01:51:34.308Z,6.00
2022-10-02T01:52:29.398Z,2.20
2022-10-02T01:53:25.256Z,2.90
2022-10-02T01:54:20.317Z,3.50
2022-10-02T01:55:15.514Z,4.90
2022-10-02T01:56:11.483Z,2.50
2022-10-02T01:57:06.676Z,5.50
2022-10-02T01:58:01.930Z,2.90
2022-10-02T01:58:58.345Z,2.60
2022-10-02T01:59:53.543Z,4.10
2022-10-02T02:00:49.353Z,4.20
2022-10-02T02:01:44.759Z,6.30
2022-10-02T02:02:39.951Z,3.30
2022-10-02T02:03:35.413Z,2.60
2022-10-02T02:04:30.763Z,3.00
2022-10-02T02:05:26.408Z,3.10
2022-10-02T02:06:21.721Z,2.60
2022-10-02T02:07:17.012Z,5.30
2022-10-02T02:08:12.617Z,3.50
2022-10-02T02:09:07.766Z,2.70
2022-10-02T02:10:03.036Z,3.50
2022-10-02T02:10:59.286Z,4.00
2022-10-02T02:11:55.236Z,3.20
2022-10-02T02:12:50.262Z,2.60
2022-10-02T02:13:45.586Z,4.90
2022-10-02T02:14:40.826Z,4.20
2022-10-02T02:15:36.506Z,2.90
2022-10-02T02:16:31.831Z,3.60
2022-10-02T02:17:27.578Z,5.10
2022-10-02T02:18:22.605Z,3.10
2022-10-02T02:19:18.005Z,5.80
2022-10-02T02:20:13.613Z,3.50
2022-10-02T02:21:08.935Z,2.90
2022-10-02T02:22:04.089Z,3.90
2022-10-02T02:23:00.454Z,3.80
2022-10-02T02:23:56.027Z,6.30
2022-10-02T02:24:51.718Z,3.50
2022-10-02T02:25:46.766Z,4.40
2022-10-02T02:26:41.934Z,3.70
2022-10-02T02:27:37.866Z,3.30
2022-10-02T02:28:33.031Z,5.40
2022-10-02T02:29:29.021Z,6.50
2022-10-02T02:30:24.052Z,3.70
2022-10-02T02:31:19.252Z,5.10
2022-10-02T02:32:15.061Z,4.40
2022-10-02T02:33:10.237Z,6.20
2022-10-02T02:34:05.519Z,5.20
2022-10-02T02:35:01.931Z,3.80
2022-10-02T02:35:56.974Z,2.50
2022-10-02T02:36:52.718Z,3.60
2022-10-02T02:37:47.966Z,2.90
2022-10-02T02:38:43.278Z,5.00
2022-10-02T02:39:38.881Z,4.30
2022-10-02T02:40:34.049Z,3.70
2022-10-02T02:41:30.122Z,3.70
2022-10-02T02:42:26.412Z,2.50
2022-10-02T02:43:20.945Z,5.50
2022-10-02T02:44:16.560Z,3.90
2022-10-02T02:45:11.721Z,3.20
2022-10-02T02:46:07.080Z,2.60
2022-10-02T02:47:03.289Z,2.70
2022-10-02T02:47:58.492Z,3.60
2022-10-02T02:48:54.354Z,3.70
2022-10-02T02:49:49.526Z,4.70
2022-10-02T02:50:44.737Z,2.80
2022-10-02T02:51:40.672Z,7.20
2022-10-02T02:52:35.782Z,8.40
2022-10-02T02:53:30.950Z,3.30
2022-10-02T02:54:26.083Z,3.80
2022-10-02T02:55:21.242Z,3.90
2022-10-02T02:56:17.586Z,3.70
2022-10-02T02:57:12.917Z,3.60
2022-10-02T02:58:08.810Z,4.00
2022-10-02T02:59:03.986Z,3.20
2022-10-02T02:59:59.290Z,2.90
2022-10-02T03:00:55.089Z,3.30
2022-10-02T03:01:50.434Z,3.60
2022-10-02T03:02:46.267Z,4.70
2022-10-02T03:03:41.388Z,4.20
2022-10-02T03:04:36.731Z,5.70
2022-10-02T03:05:32.438Z,3.10
2022-10-02T03:06:27.634Z,4.10
2022-10-02T03:07:22.764Z,5.00
2022-10-02T03:08:19.188Z,4.60
2022-10-02T03:09:14.477Z,3.30
2022-10-02T03:10:09.627Z,3.80
2022-10-02T03:11:04.789Z,2.50
2022-10-02T03:12:02.397Z,2.40
2022-10-02T03:12:57.722Z,2.70
2022-10-02T03:13:52.795Z,3.90
2022-10-02T03:14:48.547Z,3.90
2022-10-02T03:15:43.801Z,4.20
2022-10-02T03:16:39.369Z,4.00
2022-10-02T03:17:34.253Z,4.30
2022-10-02T03:18:29.298Z,2.80
2022-10-02T03:19:24.333Z,4.20
2022-10-02T03:20:19.372Z,4.60
2022-10-02T03:21:14.491Z,3.60
2022-10-02T03:22:09.520Z,5.50
2022-10-02T03:23:04.640Z,2.50
2022-10-02T03:23:59.699Z,3.50
2022-10-02T03:24:54.825Z,4.70
2022-10-02T03:25:49.851Z,2.00
2022-10-02T03:26:44.890Z,2.40
2022-10-02T03:27:39.929Z,5.60
2022-10-02T03:28:55.096Z,5.40
2022-10-02T03:29:31.705Z,6.10
2022-10-02T03:30:28.820Z,5.40
2022-10-02T03:31:24.163Z,3.80
2022-10-02T03:32:19.194Z,3.50
2022-10-02T03:33:14.330Z,5.30
2022-10-02T03:34:09.465Z,4.10
2022-10-02T03:35:04.458Z,3.00
2022-10-02T03:35:59.486Z,3.20
2022-10-02T03:36:54.467Z,3.60
2022-10-02T03:37:49.595Z,3.60
2022-10-02T03:38:45.018Z,5.40
2022-10-02T03:39:39.642Z,5.00
2022-10-02T03:40:34.723Z,4.70
2022-10-02T03:41:29.912Z,3.00
2022-10-02T03:42:29.798Z,4.60
2022-10-02T03:43:24.856Z,2.70
2022-10-02T03:44:20.150Z,3.20
2022-10-02T03:45:32.795Z,5.50
2022-10-02T03:46:12.075Z,5.70
2022-10-02T03:47:06.461Z,2.40
2022-10-02T03:48:01.491Z,3.70
2022-10-02T03:48:56.644Z,3.50
2022-10-02T03:49:51.602Z,3.30
2022-10-02T03:50:46.648Z,2.00
2022-10-02T03:51:41.711Z,5.70
2022-10-02T03:52:36.778Z,5.20
2022-10-02T03:53:31.810Z,4.70
2022-10-02T03:54:32.441Z,3.00
2022-10-02T03:55:27.590Z,3.10
2022-10-02T03:56:23.028Z,3.40
2022-10-02T03:57:18.798Z,4.00
2022-10-02T03:58:13.978Z,5.30
2022-10-02T03:59:09.146Z,2.50
2022-10-02T04:00:05.788Z,4.60
2022-10-02T04:01:00.823Z,5.20
2022-10-02T04:01:56.753Z,4.40
2022-10-02T04:02:52.040Z,6.30
2022-10-02T04:03:47.155Z,4.00
2022-10-02T04:04:42.891Z,3.10
2022-10-02T04:05:38.094Z,3.40
2022-10-02T04:06:34.374Z,4.70
2022-10-02T04:07:29.121Z,2.50
2022-10-02T04:08:24.335Z,3.80
2022-10-02T04:09:20.834Z,5.90
2022-10-02T04:10:16.148Z,5.30
2022-10-02T04:11:11.189Z,4.70
2022-10-02T04:12:07.734Z,4.10
2022-10-02T04:13:02.752Z,3.60
2022-10-02T04:13:58.864Z,3.70
2022-10-02T04:14:54.064Z,4.30
2022-10-02T04:15:49.272Z,4.40
2022-10-02T04:16:44.975Z,3.50
2022-10-02T04:17:40.200Z,5.20
2022-10-02T04:18:35.921Z,3.00
2022-10-02T04:19:31.143Z,7.30
2022-10-02T04:20:26.470Z,4.00
2022-10-02T04:21:22.561Z,4.40
2022-10-02T04:22:17.621Z,4.40
2022-10-02T04:23:12.736Z,7.50
2022-10-02T04:24:09.312Z,4.20
2022-10-02T04:25:04.492Z,6.10
2022-10-02T04:26:00.458Z,6.00
2022-10-02T04:26:55.783Z,3.70
2022-10-02T04:27:51.020Z,2.10
2022-10-02T04:28:46.447Z,3.00
2022-10-02T04:29:41.861Z,4.80
2022-10-02T04:30:37.810Z,2.90
2022-10-02T04:31:32.892Z,4.90
2022-10-02T04:32:28.067Z,6.00
2022-10-02T04:33:23.914Z,2.30
2022-10-02T04:34:19.090Z,2.40
2022-10-02T04:35:14.370Z,1.80
2022-10-02T04:36:10.863Z,4.40
2022-10-02T04:37:06.019Z,1.70
2022-10-02T04:38:02.040Z,3.50
2022-10-02T04:38:57.311Z,3.20
2022-10-02T04:39:52.493Z,3.10
2022-10-02T04:40:48.263Z,3.90
2022-10-02T04:41:43.433Z,2.90
2022-10-02T04:42:38.694Z,3.30
2022-10-02T04:43:33.859Z,2.40
2022-10-02T04:44:29.852Z,5.00
2022-10-02T04:45:25.056Z,3.20
2022-10-02T04:46:20.335Z,5.00
2022-10-02T04:47:16.622Z,3.60
2022-10-02T04:48:11.802Z,8.20
2022-10-02T04:49:07.678Z,2.90
2022-10-02T04:50:02.827Z,4.70
2022-10-02T04:50:58.290Z,2.50
2022-10-02T04:51:53.943Z,2.80
2022-10-02T04:52:49.108Z,3.30
2022-10-02T04:53:44.994Z,4.30
2022-10-02T04:54:40.169Z,3.30
2022-10-02T04:55:35.496Z,3.20
2022-10-02T04:56:31.379Z,3.50
2022-10-02T04:57:26.434Z,2.50
2022-10-02T04:58:21.693Z,5.10
2022-10-02T04:59:17.956Z,2.40
2022-10-02T05:00:13.058Z,2.30
2022-10-02T05:01:08.488Z,4.60
2022-10-02T05:02:03.598Z,2.90
2022-10-02T05:02:58.905Z,5.00
2022-10-02T05:03:53.951Z,3.20
2022-10-02T05:04:49.823Z,4.00
2022-10-02T05:05:44.982Z,3.10
2022-10-02T05:06:40.102Z,3.20
2022-10-02T05:07:35.314Z,4.80
2022-10-02T05:08:31.626Z,5.80
2022-10-02T05:09:28.560Z,3.80
2022-10-02T05:10:22.252Z,5.00
2022-10-02T05:11:21.385Z,3.00
2022-10-02T05:12:16.616Z,4.40
2022-10-02T05:13:11.858Z,4.80
2022-10-02T05:14:07.099Z,2.50
2022-10-02T05:15:02.175Z,3.70
2022-10-02T05:15:57.301Z,4.10
2022-10-02T05:16:52.319Z,4.00
2022-10-02T05:17:47.459Z,1.60
2022-10-02T05:18:42.439Z,4.10
2022-10-02T05:19:37.554Z,3.50
2022-10-02T05:20:32.518Z,4.10
2022-10-02T05:21:27.607Z,2.20
2022-10-02T05:22:22.683Z,6.60
2022-10-02T05:23:17.826Z,3.30
2022-10-02T05:24:13.021Z,3.70
2022-10-02T05:25:08.114Z,4.00
2022-10-02T05:26:03.195Z,3.50
2022-10-02T05:26:58.292Z,4.80
2022-10-02T05:27:53.362Z,3.10
2022-10-02T05:28:48.393Z,3.90
2022-10-02T05:29:43.364Z,2.50
2022-10-02T05:30:38.496Z,5.80
2022-10-02T05:31:33.662Z,6.30
2022-10-02T05:32:28.663Z,2.70
2022-10-02T05:33:23.763Z,3.80
2022-10-02T05:34:18.915Z,6.70
2022-10-02T05:35:14.132Z,6.30
2022-10-02T05:36:09.182Z,5.30
2022-10-02T05:37:05.333Z,3.60
2022-10-02T05:38:00.418Z,3.80
2022-10-02T05:38:55.674Z,4.40
2022-10-02T05:39:50.661Z,5.20
2022-10-02T05:40:45.704Z,7.00
2022-10-02T05:41:40.764Z,5.30
2022-10-02T05:42:38.202Z,3.00
2022-10-02T05:43:30.951Z,3.90
2022-10-02T05:44:25.900Z,6.50
2022-10-02T05:45:20.949Z,6.70
2022-10-02T05:46:16.032Z,3.80
2022-10-02T05:47:11.109Z,6.30
2022-10-02T05:48:06.167Z,5.10
2022-10-02T05:49:01.259Z,3.90
2022-10-02T05:49:56.312Z,2.90
2022-10-02T05:50:51.475Z,6.30
2022-10-02T05:51:46.573Z,3.40
2022-10-02T05:52:41.799Z,4.40
2022-10-02T05:53:36.747Z,3.30
2022-10-02T05:54:31.801Z,3.20
2022-10-02T05:55:26.848Z,7.30
2022-10-02T05:56:21.916Z,6.10
2022-10-02T05:57:16.956Z,5.80
2022-10-02T05:58:12.064Z,5.00
2022-10-02T05:59:07.123Z,5.80
2022-10-02T06:00:02.146Z,5.30
2022-10-02T06:01:11.924Z,5.20
2022-10-02T06:01:52.314Z,4.60
2022-10-02T06:02:47.351Z,4.20
2022-10-02T06:03:42.453Z,5.20
2022-10-02T06:04:37.614Z,4.40
2022-10-02T06:05:32.704Z,7.70
2022-10-02T06:06:27.782Z,4.70
2022-10-02T06:07:22.792Z,5.30
2022-10-02T06:08:17.894Z,3.40
2022-10-02T06:09:20.098Z,5.20
2022-10-02T06:10:12.266Z,5.20
2022-10-02T06:11:07.334Z,7.40
2022-10-02T06:12:02.381Z,3.70
2022-10-02T06:12:57.393Z,5.20
2022-10-02T06:13:52.613Z,4.50
2022-10-02T06:14:50.731Z,7.90
2022-10-02T06:15:42.619Z,5.40
2022-10-02T06:16:37.930Z,4.10
2022-10-02T06:17:32.797Z,5.40
2022-10-02T06:18:27.877Z,3.00
2022-10-02T06:19:22.952Z,7.00
2022-10-02T06:20:18.080Z,5.40
2022-10-02T06:21:13.767Z,5.90
2022-10-02T06:22:09.522Z,3.30
2022-10-02T06:23:04.945Z,7.30
2022-10-02T06:24:00.305Z,3.30
2022-10-02T06:24:55.817Z,3.50
2022-10-02T06:25:51.108Z,5.00
2022-10-02T06:26:46.482Z,5.20
2022-10-02T06:27:41.866Z,6.40
2022-10-02T06:28:37.246Z,3.50
2022-10-02T06:29:32.635Z,4.50
2022-10-02T06:30:27.999Z,5.30
2022-10-02T06:31:23.415Z,8.50
2022-10-02T06:32:18.926Z,4.30
2022-10-02T06:33:14.354Z,6.30
2022-10-02T06:34:09.745Z,5.00
2022-10-02T06:35:05.270Z,5.50
2022-10-02T06:36:00.384Z,3.60
2022-10-02T06:36:55.444Z,4.90
2022-10-02T06:37:50.671Z,5.30
2022-10-02T06:38:45.550Z,3.90
2022-10-02T06:39:40.670Z,5.90
2022-10-02T06:40:35.630Z,3.60
2022-10-02T06:41:30.793Z,5.90
2022-10-02T06:42:25.957Z,4.20
2022-10-02T06:43:20.978Z,3.20
2022-10-02T06:44:16.045Z,4.10
2022-10-02T06:45:11.091Z,4.30
2022-10-02T06:46:06.105Z,6.90
2022-10-02T06:47:01.177Z,2.30
2022-10-02T06:47:56.206Z,4.00
2022-10-02T06:48:51.216Z,4.70
2022-10-02T06:49:46.230Z,4.10
2022-10-02T06:50:41.278Z,5.00
2022-10-02T06:51:36.280Z,6.00
2022-10-02T06:52:35.748Z,4.00
2022-10-02T06:53:27.427Z,5.20
2022-10-02T06:54:21.435Z,4.30
2022-10-02T06:55:16.461Z,4.00
2022-10-02T06:56:11.486Z,2.80
2022-10-02T06:57:06.512Z,3.60
2022-10-02T06:58:01.575Z,4.50
2022-10-02T06:58:56.769Z,6.70
2022-10-02T06:59:51.801Z,3.50
2022-10-02T07:00:46.905Z,4.20
2022-10-02T07:01:41.971Z,6.10
2022-10-02T07:02:36.964Z,4.70
2022-10-02T07:03:32.022Z,2.30
2022-10-02T07:04:27.055Z,4.60
2022-10-02T07:05:22.075Z,5.30
2022-10-02T07:06:17.120Z,7.00
2022-10-02T07:07:12.127Z,5.50
2022-10-02T07:08:07.196Z,4.00
2022-10-02T07:09:02.761Z,6.20
2022-10-02T07:09:58.181Z,4.10
2022-10-02T07:10:53.703Z,3.20
2022-10-02T07:11:48.739Z,3.20
2022-10-02T07:12:43.778Z,3.60
2022-10-02T07:13:38.867Z,3.10
2022-10-02T07:14:33.899Z,4.00
2022-10-02T07:15:28.938Z,3.10
2022-10-02T07:16:23.974Z,4.20
2022-10-02T07:17:22.209Z,5.80
2022-10-02T07:18:16.535Z,2.40
2022-10-02T07:19:11.610Z,3.10
2022-10-02T07:20:06.626Z,2.90
2022-10-02T07:21:01.742Z,2.30
2022-10-02T07:21:56.748Z,3.40
2022-10-02T07:22:51.847Z,3.00
2022-10-02T07:23:46.773Z,3.10
2022-10-02T07:24:41.826Z,5.00
2022-10-02T07:25:37.159Z,3.70
2022-10-02T07:26:32.714Z,3.50
2022-10-02T07:27:27.993Z,3.00
2022-10-02T07:28:23.488Z,5.10
2022-10-02T07:29:19.017Z,2.40
2022-10-02T07:30:14.534Z,2.40
2022-10-02T07:31:09.961Z,3.70
2022-10-02T07:32:05.470Z,4.40
2022-10-02T07:33:01.070Z,5.80
2022-10-02T07:33:56.506Z,3.40
2022-10-02T07:34:51.983Z,5.10
2022-10-02T07:35:47.529Z,4.80
2022-10-02T07:36:43.021Z,8.60
2022-10-02T07:37:38.629Z,4.70
2022-10-02T07:38:34.161Z,4.80
2022-10-02T07:39:29.636Z,3.40
2022-10-02T07:40:25.150Z,2.80
2022-10-02T07:41:24.147Z,2.90
2022-10-02T07:42:19.452Z,4.00
2022-10-02T07:43:14.816Z,3.90
2022-10-02T07:44:10.324Z,3.50
2022-10-02T07:45:05.915Z,3.00
2022-10-02T07:46:01.333Z,4.60
2022-10-02T07:46:56.704Z,3.50
2022-10-02T07:47:52.276Z,4.20
2022-10-02T07:48:47.780Z,5.80
2022-10-02T07:49:43.314Z,3.60
2022-10-02T07:50:38.826Z,3.60
2022-10-02T07:51:34.445Z,3.60
2022-10-02T07:52:30.221Z,4.20
2022-10-02T07:53:25.802Z,3.30
2022-10-02T07:54:21.282Z,2.60
2022-10-02T07:55:16.543Z,5.10
2022-10-02T07:56:11.629Z,1.90
2022-10-02T07:57:09.882Z,3.60
2022-10-02T07:58:01.724Z,2.60
2022-10-02T07:58:56.796Z,5.00
2022-10-02T07:59:51.803Z,2.50
2022-10-02T08:00:46.940Z,2.60
2022-10-02T08:01:42.024Z,4.20
2022-10-02T08:02:37.062Z,2.90
2022-10-02T08:03:32.202Z,3.20
2022-10-02T08:04:27.658Z,4.70
2022-10-02T08:05:23.004Z,2.60
2022-10-02T08:06:18.457Z,4.10
2022-10-02T08:07:14.182Z,6.30
2022-10-02T08:08:09.354Z,5.60
2022-10-02T08:09:04.850Z,3.80
2022-10-02T08:10:00.403Z,3.00
2022-10-02T08:10:55.447Z,3.30
2022-10-02T08:11:50.521Z,2.00
2022-10-02T08:12:45.639Z,2.80
2022-10-02T08:13:40.744Z,3.80
2022-10-02T08:14:35.803Z,2.20
2022-10-02T08:15:30.949Z,3.30
2022-10-02T08:16:25.951Z,2.00
2022-10-02T08:17:21.026Z,2.50
2022-10-02T08:18:33.774Z,2.10
2022-10-02T08:19:12.117Z,2.70
2022-10-02T08:20:07.336Z,2.40
2022-10-02T08:21:02.956Z,1.60
2022-10-02T08:21:58.462Z,2.30
2022-10-02T08:22:54.102Z,3.00
2022-10-02T08:23:49.573Z,2.20
2022-10-02T08:24:45.144Z,2.50
2022-10-02T08:25:40.798Z,2.60
2022-10-02T08:26:36.326Z,2.30
2022-10-02T08:27:31.712Z,1.70
2022-10-02T08:28:27.253Z,2.90
2022-10-02T08:29:22.560Z,4.40
2022-10-02T08:30:18.090Z,3.00
2022-10-02T08:31:13.492Z,1.80
2022-10-02T08:32:08.985Z,4.30
2022-10-02T08:33:04.347Z,3.80
2022-10-02T08:33:59.435Z,2.70
2022-10-02T08:34:54.493Z,1.80
2022-10-02T08:35:49.872Z,2.80
2022-10-02T08:36:44.879Z,3.20
2022-10-02T08:37:39.951Z,4.80
2022-10-02T08:38:35.038Z,2.40
2022-10-02T08:39:30.102Z,3.00
2022-10-02T08:40:25.329Z,4.00
2022-10-02T08:41:20.360Z,7.00
2022-10-02T08:42:15.470Z,3.50
2022-10-02T08:43:11.784Z,5.00
2022-10-02T08:44:07.169Z,2.90
2022-10-02T08:45:02.750Z,2.10
2022-10-02T08:45:58.214Z,1.80
2022-10-02T08:46:53.648Z,2.00
2022-10-02T08:47:49.229Z,1.30
2022-10-02T08:48:44.597Z,1.30
2022-10-02T08:49:39.968Z,3.70
2022-10-02T08:50:35.518Z,3.00
2022-10-02T08:51:32.029Z,3.80
2022-10-02T08:52:27.545Z,2.30
2022-10-02T08:53:23.299Z,1.40
2022-10-02T08:54:18.574Z,2.40
2022-10-02T08:55:14.042Z,2.10
2022-10-02T08:56:09.427Z,3.00
2022-10-02T08:57:04.985Z,2.60
2022-10-02T08:58:00.555Z,1.90
2022-10-02T08:58:56.025Z,1.70
2022-10-02T08:59:52.378Z,2.30
2022-10-02T09:00:47.767Z,3.30
2022-10-02T09:01:43.305Z,1.70
2022-10-02T09:02:38.949Z,1.70
2022-10-02T09:03:34.410Z,2.00
2022-10-02T09:04:29.902Z,1.70
2022-10-02T09:05:25.450Z,1.40
2022-10-02T09:06:21.710Z,3.30
2022-10-02T09:07:16.489Z,2.20
2022-10-02T09:08:11.882Z,2.20
2022-10-02T09:09:07.388Z,3.50
2022-10-02T09:10:02.424Z,2.70
2022-10-02T09:10:57.575Z,3.40
2022-10-02T09:11:52.537Z,3.00
2022-10-02T09:12:47.804Z,2.90
2022-10-02T09:13:42.800Z,2.40
2022-10-02T09:14:37.837Z,2.60
2022-10-02T09:15:32.854Z,2.00
2022-10-02T09:16:28.122Z,2.60
2022-10-02T09:17:23.254Z,1.70
2022-10-02T09:18:18.146Z,1.30
2022-10-02T09:19:14.889Z,1.90
2022-10-02T09:20:10.103Z,1.80
2022-10-02T09:21:09.310Z,1.80
2022-10-02T09:22:02.211Z,3.80
2022-10-02T09:22:55.788Z,3.40
2022-10-02T09:23:51.020Z,1.90
2022-10-02T09:24:46.418Z,1.10
2022-10-02T09:25:41.829Z,2.30
2022-10-02T09:26:37.832Z,1.70
2022-10-02T09:27:32.946Z,2.50
2022-10-02T09:28:28.619Z,1.20
2022-10-02T09:29:23.855Z,1.70
2022-10-02T09:30:19.476Z,2.10
2022-10-02T09:31:15.328Z,1.80
2022-10-02T09:32:10.604Z,2.50
2022-10-02T09:33:06.298Z,2.10
2022-10-02T09:34:01.420Z,1.20
2022-10-02T09:34:56.953Z,2.90
2022-10-02T09:35:52.066Z,3.10
2022-10-02T09:36:47.187Z,2.30
2022-10-02T09:37:42.188Z,1.90
2022-10-02T09:38:39.242Z,1.40
2022-10-02T09:39:32.299Z,0.80
2022-10-02T09:40:27.350Z,1.30
2022-10-02T09:41:22.462Z,2.30
2022-10-02T09:42:20.123Z,1.60
2022-10-02T09:43:15.134Z,2.60
2022-10-02T09:44:10.278Z,1.80
2022-10-02T09:45:05.232Z,1.90
2022-10-02T09:46:00.376Z,1.20
2022-10-02T09:46:55.335Z,1.90
2022-10-02T09:47:50.448Z,0.80
2022-10-02T09:48:45.736Z,1.10
2022-10-02T09:49:40.912Z,0.70
2022-10-02T09:50:36.432Z,1.10
2022-10-02T09:51:32.118Z,1.90
2022-10-02T09:52:27.503Z,1.30
2022-10-02T09:53:23.015Z,1.00
2022-10-02T09:54:18.650Z,1.20
2022-10-02T09:55:14.203Z,0.80
2022-10-02T09:56:09.794Z,2.20
2022-10-02T09:57:05.600Z,2.20
2022-10-02T09:58:01.151Z,0.90
2022-10-02T09:58:56.191Z,2.10
2022-10-02T09:59:51.293Z,1.80
2022-10-02T10:00:46.449Z,0.90
2022-10-02T10:01:41.445Z,2.50
2022-10-02T10:02:36.496Z,2.60
2022-10-02T10:03:31.416Z,1.10
2022-10-02T10:04:33.874Z,1.10
2022-10-02T10:05:24.301Z,1.30
2022-10-02T10:06:18.340Z,0.60
2022-10-02T10:07:16.279Z,2.50
2022-10-02T10:08:09.658Z,2.50
2022-10-02T10:09:04.611Z,1.80
2022-10-02T10:10:00.296Z,1.20
2022-10-02T10:10:55.751Z,0.90
2022-10-02T10:11:51.079Z,3.80
2022-10-02T10:12:46.607Z,1.40
2022-10-02T10:13:41.905Z,1.30
2022-10-02T10:14:36.972Z,1.40
2022-10-02T10:15:32.018Z,0.70
2022-10-02T10:16:27.133Z,1.50
2022-10-02T10:17:22.178Z,1.00
2022-10-02T10:18:17.168Z,2.30
2022-10-02T10:19:12.226Z,1.90
2022-10-02T10:20:07.287Z,0.90
2022-10-02T10:21:02.395Z,1.80
2022-10-02T10:21:57.443Z,0.80
2022-10-02T10:22:52.573Z,1.20
2022-10-02T10:23:47.527Z,0.70
2022-10-02T10:24:42.716Z,0.50
2022-10-02T10:25:38.396Z,1.10
2022-10-02T10:26:33.919Z,0.50
2022-10-02T10:27:29.365Z,1.40
2022-10-02T10:28:24.893Z,0.80
2022-10-02T10:29:20.370Z,0.70
2022-10-02T10:30:15.695Z,3.40
2022-10-02T10:31:11.344Z,1.00
2022-10-02T10:32:06.828Z,1.10
2022-10-02T10:33:02.432Z,1.10
2022-10-02T10:33:58.003Z,0.30
2022-10-02T10:34:53.342Z,0.60
2022-10-02T10:35:48.677Z,2.50
2022-10-02T10:36:46.706Z,1.50
2022-10-02T10:37:39.316Z,0.80
2022-10-02T10:38:34.447Z,3.20
2022-10-02T10:39:29.492Z,0.60
2022-10-02T10:40:24.420Z,0.50
2022-10-02T10:41:19.651Z,1.00
2022-10-02T10:42:14.619Z,1.80
2022-10-02T10:43:12.375Z,0.60
2022-10-02T10:44:06.667Z,1.00
2022-10-02T10:45:01.742Z,0.50
2022-10-02T10:45:56.851Z,0.90
2022-10-02T10:46:51.830Z,0.40
2022-10-02T10:47:46.893Z,0.30
2022-10-02T10:48:44.810Z,1.70
2022-10-02T10:49:38.023Z,0.50
2022-10-02T10:50:32.107Z,0.30
2022-10-02T10:51:27.620Z,0.60
2022-10-02T10:52:22.898Z,1.50
2022-10-02T10:53:18.434Z,1.00
2022-10-02T10:54:13.815Z,1.50
2022-10-02T10:55:09.445Z,1.00
2022-10-02T10:56:04.939Z,1.10
2022-10-02T10:57:00.009Z,0.30
2022-10-02T10:57:55.093Z,0.30
2022-10-02T10:58:50.193Z,1.00
2022-10-02T10:59:45.308Z,1.20
2022-10-02T11:00:40.312Z,0.80
2022-10-02T11:01:35.837Z,0.30
2022-10-02T11:02:30.565Z,0.80
2022-10-02T11:03:25.618Z,0.40
2022-10-02T11:04:20.700Z,1.00
2022-10-02T11:05:15.656Z,0.30
2022-10-02T11:06:10.886Z,0.60
2022-10-02T11:07:05.987Z,1.20
2022-10-02T11:08:01.124Z,0.70
2022-10-02T11:08:56.064Z,0.70
2022-10-02T11:09:51.193Z,0.80
2022-10-02T11:10:46.414Z,1.50
2022-10-02T11:11:41.509Z,1.20
2022-10-02T11:12:36.488Z,1.70
2022-10-02T11:13:34.134Z,0.30
2022-10-02T11:14:29.567Z,0.20
2022-10-02T11:15:24.969Z,1.00
2022-10-02T11:16:20.679Z,0.50
2022-10-02T11:17:16.010Z,0.40
2022-10-02T11:18:11.526Z,1.00
2022-10-02T11:19:07.002Z,0.50
2022-10-02T11:20:02.562Z,0.20
2022-10-02T11:20:58.058Z,0.40
2022-10-02T11:21:53.572Z,0.40
2022-10-02T11:22:49.193Z,1.70
2022-10-02T11:23:44.522Z,0.20
2022-10-02T11:24:40.017Z,0.50
2022-10-02T11:25:35.552Z,0.90
2022-10-02T11:26:30.891Z,1.00
2022-10-02T11:27:26.037Z,0.60
2022-10-02T11:28:21.143Z,0.50
2022-10-02T11:29:16.136Z,1.20
2022-10-02T11:30:11.594Z,0.30
2022-10-02T11:31:06.436Z,0.70
2022-10-02T11:32:01.556Z,0.30
2022-10-02T11:32:56.486Z,0.50
2022-10-02T11:33:51.624Z,0.40
2022-10-02T11:34:46.777Z,0.40
2022-10-02T11:35:41.808Z,1.70
2022-10-02T11:36:38.269Z,1.20
2022-10-02T11:37:33.446Z,0.50
2022-10-02T11:38:28.493Z,0.60
2022-10-02T11:39:23.731Z,1.60
2022-10-02T11:40:19.064Z,0.40
2022-10-02T11:41:14.409Z,0.80
2022-10-02T11:42:10.030Z,1.10
2022-10-02T11:43:05.463Z,0.80
2022-10-02T11:44:01.061Z,0.30
2022-10-02T11:44:56.265Z,0.50
2022-10-02T11:45:51.807Z,1.10
2022-10-02T11:46:47.326Z,0.30
2022-10-02T11:47:42.737Z,1.10
2022-10-02T11:48:38.215Z,0.30
2022-10-02T11:49:33.705Z,1.20
2022-10-02T11:50:29.355Z,0.60
2022-10-02T11:51:24.647Z,0.40
2022-10-02T11:52:20.303Z,1.30
2022-10-02T11:53:15.372Z,0.30
2022-10-02T11:54:10.443Z,0.50
2022-10-02T11:55:05.619Z,0.50
2022-10-02T11:56:00.591Z,1.10
2022-10-02T11:56:55.631Z,1.50
2022-10-02T11:57:50.745Z,1.00
2022-10-02T11:58:45.943Z,2.60
2022-10-02T11:59:43.385Z,0.60
2022-10-02T12:00:38.373Z,0.80
2022-10-02T12:01:33.549Z,0.40
2022-10-02T12:02:28.535Z,0.70
2022-10-02T12:03:24.783Z,0.20
2022-10-02T12:04:20.125Z,0.60
2022-10-02T12:05:15.491Z,2.90
2022-10-02T12:06:10.975Z,0.90
2022-10-02T12:07:06.463Z,1.00
2022-10-02T12:08:02.014Z,0.80
2022-10-02T12:08:57.504Z,0.80
2022-10-02T12:09:53.073Z,1.10
2022-10-02T12:10:48.249Z,0.70
2022-10-02T12:11:43.656Z,0.50
2022-10-02T12:12:39.099Z,0.50
2022-10-02T12:13:34.682Z,0.90
2022-10-02T12:14:30.008Z,0.70
2022-10-02T12:15:25.597Z,1.10
2022-10-02T12:16:21.174Z,0.50